createdAt,value
2018-12-15T00:00:26.193Z,20.14
2018-12-15T00:01:27.539Z,20.18
2018-12-15T00:02:26.179Z,20.16
2018-12-15T00:03:26.175Z,20.13
2018-12-15T00:04:26.243Z,20.22
2018-12-15T00:05:26.128Z,20.19
2018-12-15T00:06:26.121Z,20.14
2018-12-15T00:07:26.104Z,20.10
2018-12-15T00:08:26.253Z,20.10
2018-12-15T00:09:26.097Z,20.09
2018-12-15T00:10:26.077Z,20.06
2018-12-15T00:11:26.082Z,20.04
2018-12-15T00:12:26.057Z,20.07
2018-12-15T00:13:26.043Z,20.07
2018-12-15T00:14:26.037Z,20.02
2018-12-15T00:15:26.039Z,20.07
2018-12-15T00:16:26.033Z,20.06
2018-12-15T00:17:26.011Z,20.10
2018-12-15T00:18:26.026Z,20.10
2018-12-15T00:19:26.026Z,20.14
2018-12-15T00:20:25.967Z,20.13
2018-12-15T00:21:25.981Z,20.14
2018-12-15T00:22:25.941Z,20.06
2018-12-15T00:23:25.962Z,20.00
2018-12-15T00:24:25.924Z,20.02
2018-12-15T00:25:25.907Z,20.00
2018-12-15T00:26:25.986Z,20.09
2018-12-15T00:27:25.921Z,20.04
2018-12-15T00:28:25.883Z,20.07
2018-12-15T00:29:25.878Z,20.02
2018-12-15T00:30:25.859Z,20.10
2018-12-15T00:31:25.839Z,20.13
2018-12-15T00:32:25.828Z,20.16
2018-12-15T00:33:25.867Z,20.10
2018-12-15T00:34:25.839Z,20.10
2018-12-15T00:35:25.810Z,20.13
2018-12-15T00:36:25.831Z,20.13
2018-12-15T00:37:25.767Z,20.14
2018-12-15T00:38:25.770Z,20.16
2018-12-15T00:39:25.794Z,20.14
2018-12-15T00:40:25.742Z,20.14
2018-12-15T00:41:25.739Z,20.10
2018-12-15T00:42:25.760Z,20.14
2018-12-15T00:43:25.713Z,20.13
2018-12-15T00:44:25.718Z,20.16
2018-12-15T00:45:25.689Z,20.11
2018-12-15T00:46:25.675Z,20.14
2018-12-15T00:47:25.659Z,20.11
2018-12-15T00:48:25.647Z,20.10
2018-12-15T00:49:25.633Z,20.07
2018-12-15T00:50:25.671Z,20.07
2018-12-15T00:51:25.628Z,20.07
2018-12-15T00:52:25.645Z,20.10
2018-12-15T00:53:25.597Z,20.09
2018-12-15T00:54:25.581Z,20.07
2018-12-15T00:55:25.574Z,20.09
2018-12-15T00:56:25.616Z,20.10
2018-12-15T00:57:25.549Z,20.09
2018-12-15T00:58:25.536Z,20.03
2018-12-15T00:59:25.523Z,20.03
2018-12-15T01:00:25.525Z,20.02
2018-12-15T01:01:25.522Z,20.02
2018-12-15T01:02:25.511Z,19.99
2018-12-15T01:03:25.512Z,19.96
2018-12-15T01:04:25.521Z,19.99
2018-12-15T01:05:25.501Z,20.02
2018-12-15T01:06:25.477Z,19.96
2018-12-15T01:07:25.457Z,20.00
2018-12-15T01:08:25.450Z,20.03
2018-12-15T01:09:25.406Z,20.00
2018-12-15T01:10:25.407Z,20.00
2018-12-15T01:11:25.381Z,20.00
2018-12-15T01:12:25.429Z,20.02
2018-12-15T01:13:25.367Z,20.06
2018-12-15T01:14:25.358Z,20.07
2018-12-15T01:15:25.345Z,20.02
2018-12-15T01:16:25.381Z,19.99
2018-12-15T01:17:25.323Z,20.02
2018-12-15T01:18:25.303Z,20.02
2018-12-15T01:19:25.294Z,20.03
2018-12-15T01:20:25.305Z,19.99
2018-12-15T01:21:25.284Z,20.03
2018-12-15T01:22:25.262Z,20.02
2018-12-15T01:23:25.321Z,20.07
2018-12-15T01:24:25.232Z,20.07
2018-12-15T01:25:25.263Z,20.04
2018-12-15T01:26:25.224Z,20.03
2018-12-15T01:27:25.205Z,20.04
2018-12-15T01:28:25.200Z,20.11
2018-12-15T01:29:25.177Z,20.02
2018-12-15T01:30:25.169Z,20.04
2018-12-15T01:31:25.182Z,20.09
2018-12-15T01:32:25.179Z,20.03
2018-12-15T01:33:25.151Z,20.07
2018-12-15T01:34:25.137Z,20.03
2018-12-15T01:35:25.114Z,20.06
2018-12-15T01:36:25.113Z,20.13
2018-12-15T01:37:25.158Z,20.13
2018-12-15T01:38:25.222Z,20.16
2018-12-15T01:39:25.093Z,20.13
2018-12-15T01:40:25.065Z,20.07
2018-12-15T01:41:25.055Z,20.06
2018-12-15T01:42:25.048Z,20.03
2018-12-15T01:43:25.054Z,20.00
2018-12-15T01:44:25.014Z,20.06
2018-12-15T01:45:25.001Z,20.04
2018-12-15T01:46:24.998Z,19.96
2018-12-15T01:47:27.081Z,19.92
2018-12-15T01:48:24.978Z,19.99
2018-12-15T01:49:24.991Z,20.03
2018-12-15T01:50:24.941Z,19.99
2018-12-15T01:51:24.943Z,20.02
2018-12-15T01:52:24.924Z,20.03
2018-12-15T01:53:24.922Z,20.03
2018-12-15T01:54:24.948Z,20.03
2018-12-15T01:55:24.890Z,20.02
2018-12-15T01:56:24.883Z,19.96
2018-12-15T01:57:24.865Z,19.96
2018-12-15T01:58:24.855Z,19.95
2018-12-15T01:59:24.849Z,19.89
2018-12-15T02:00:24.841Z,19.91
2018-12-15T02:01:24.854Z,19.91
2018-12-15T02:02:24.846Z,19.95
2018-12-15T02:03:24.835Z,19.99
2018-12-15T02:04:24.794Z,20.00
2018-12-15T02:05:24.777Z,20.03
2018-12-15T02:06:24.780Z,20.00
2018-12-15T02:07:24.758Z,19.89
2018-12-15T02:08:24.823Z,19.91
2018-12-15T02:09:24.735Z,19.94
2018-12-15T02:10:24.749Z,19.94
2018-12-15T02:11:24.779Z,19.89
2018-12-15T02:12:24.720Z,19.86
2018-12-15T02:13:24.690Z,19.94
2018-12-15T02:14:24.674Z,19.91
2018-12-15T02:15:24.662Z,19.94
2018-12-15T02:16:24.660Z,19.96
2018-12-15T02:17:24.643Z,20.03
2018-12-15T02:18:24.682Z,20.03
2018-12-15T02:19:24.617Z,19.96
2018-12-15T02:20:24.612Z,20.03
2018-12-15T02:21:24.620Z,20.02
2018-12-15T02:22:24.589Z,19.95
2018-12-15T02:23:24.583Z,20.00
2018-12-15T02:24:24.559Z,19.95
2018-12-15T02:25:24.550Z,20.06
2018-12-15T02:26:24.567Z,20.04
2018-12-15T02:27:24.550Z,20.02
2018-12-15T02:28:24.535Z,19.99
2018-12-15T02:29:24.513Z,19.99
2018-12-15T02:30:24.529Z,20.07
2018-12-15T02:31:24.483Z,20.09
2018-12-15T02:32:24.495Z,20.02
2018-12-15T02:33:24.457Z,20.00
2018-12-15T02:34:24.484Z,20.02
2018-12-15T02:35:24.497Z,19.99
2018-12-15T02:36:24.446Z,19.88
2018-12-15T02:37:24.410Z,19.88
2018-12-15T02:38:24.468Z,19.85
2018-12-15T02:39:24.398Z,19.85
2018-12-15T02:40:24.399Z,19.96
2018-12-15T02:41:24.367Z,19.92
2018-12-15T02:42:24.439Z,19.92
2018-12-15T02:43:24.358Z,20.02
2018-12-15T02:44:24.355Z,20.03
2018-12-15T02:45:24.338Z,19.94
2018-12-15T02:46:24.328Z,19.91
2018-12-15T02:47:24.305Z,19.86
2018-12-15T02:48:24.295Z,19.85
2018-12-15T02:49:24.273Z,19.89
2018-12-15T02:50:24.321Z,19.99
2018-12-15T02:51:24.296Z,19.89
2018-12-15T02:52:24.265Z,19.92
2018-12-15T02:53:24.233Z,19.84
2018-12-15T02:54:24.227Z,19.89
2018-12-15T02:55:24.217Z,19.92
2018-12-15T02:56:24.282Z,19.92
2018-12-15T02:57:24.291Z,19.95
2018-12-15T02:58:24.175Z,19.96
2018-12-15T02:59:24.176Z,19.96
2018-12-15T03:00:24.151Z,19.94
2018-12-15T03:01:24.151Z,19.82
2018-12-15T03:02:24.143Z,19.84
2018-12-15T03:03:24.141Z,19.85
2018-12-15T03:04:24.125Z,19.94
2018-12-15T03:05:24.108Z,19.96
2018-12-15T03:06:24.179Z,19.92
2018-12-15T03:07:24.162Z,19.94
2018-12-15T03:08:24.149Z,20.02
2018-12-15T03:09:24.093Z,19.96
2018-12-15T03:10:24.044Z,20.04
2018-12-15T03:11:24.104Z,20.04
2018-12-15T03:12:24.028Z,20.03
2018-12-15T03:13:24.069Z,20.03
2018-12-15T03:14:23.998Z,20.00
2018-12-15T03:15:24.020Z,20.03
2018-12-15T03:16:24.036Z,19.99
2018-12-15T03:17:24.022Z,19.92
2018-12-15T03:18:23.964Z,19.96
2018-12-15T03:19:23.940Z,19.95
2018-12-15T03:20:23.924Z,19.86
2018-12-15T03:21:23.942Z,19.91
2018-12-15T03:22:23.984Z,19.92
2018-12-15T03:23:23.898Z,19.99
2018-12-15T03:24:23.887Z,19.94
2018-12-15T03:25:23.952Z,19.92
2018-12-15T03:26:23.865Z,19.96
2018-12-15T03:27:23.853Z,20.03
2018-12-15T03:28:23.886Z,19.95
2018-12-15T03:29:23.826Z,20.06
2018-12-15T03:30:23.822Z,19.95
2018-12-15T03:31:23.831Z,19.94
2018-12-15T03:32:23.814Z,19.92
2018-12-15T03:33:23.781Z,19.89
2018-12-15T03:34:23.771Z,19.96
2018-12-15T03:35:23.764Z,19.92
2018-12-15T03:36:23.756Z,19.88
2018-12-15T03:37:23.771Z,19.84
2018-12-15T03:38:23.893Z,20.00
2018-12-15T03:39:23.740Z,20.02
2018-12-15T03:40:23.698Z,19.95
2018-12-15T03:41:23.696Z,19.99
2018-12-15T03:42:23.688Z,19.94
2018-12-15T03:43:23.684Z,19.88
2018-12-15T03:44:23.689Z,19.88
2018-12-15T03:45:23.657Z,19.91
2018-12-15T03:46:23.634Z,19.89
2018-12-15T03:47:23.625Z,19.92
2018-12-15T03:48:23.662Z,20.00
2018-12-15T03:49:23.606Z,19.89
2018-12-15T03:50:23.588Z,19.91
2018-12-15T03:51:23.575Z,19.94
2018-12-15T03:52:23.571Z,19.85
2018-12-15T03:53:23.619Z,19.86
2018-12-15T03:54:23.553Z,19.77
2018-12-15T03:55:23.554Z,19.92
2018-12-15T03:56:23.538Z,19.81
2018-12-15T03:57:23.515Z,19.82
2018-12-15T03:58:23.513Z,19.94
2018-12-15T03:59:23.491Z,19.92
2018-12-15T04:00:23.499Z,19.94
2018-12-15T04:01:23.477Z,19.85
2018-12-15T04:02:23.483Z,19.91
2018-12-15T04:03:23.460Z,19.96
2018-12-15T04:04:23.435Z,19.95
2018-12-15T04:05:23.417Z,19.94
2018-12-15T04:06:23.464Z,20.00
2018-12-15T04:07:23.422Z,19.94
2018-12-15T04:08:23.501Z,20.00
2018-12-15T04:09:23.386Z,19.96
2018-12-15T04:10:23.402Z,19.92
2018-12-15T04:11:23.377Z,19.88
2018-12-15T04:12:23.345Z,19.91
2018-12-15T04:13:23.346Z,19.88
2018-12-15T04:14:23.337Z,19.91
2018-12-15T04:15:23.308Z,19.85
2018-12-15T04:16:23.295Z,19.91
2018-12-15T04:17:23.339Z,19.92
2018-12-15T04:18:23.302Z,19.96
2018-12-15T04:19:23.263Z,19.96
2018-12-15T04:20:23.277Z,20.00
2018-12-15T04:21:23.248Z,19.89
2018-12-15T04:22:23.252Z,19.85
2018-12-15T04:23:23.251Z,19.86
2018-12-15T04:24:23.253Z,19.89
2018-12-15T04:25:23.229Z,19.91
2018-12-15T04:26:23.196Z,19.89
2018-12-15T04:27:23.201Z,19.92
2018-12-15T04:28:23.207Z,19.88
2018-12-15T04:29:23.186Z,19.99
2018-12-15T04:30:23.167Z,19.89
2018-12-15T04:31:23.197Z,19.88
2018-12-15T04:32:23.639Z,19.89
2018-12-15T04:33:23.127Z,19.91
2018-12-15T04:34:23.121Z,19.91
2018-12-15T04:35:23.146Z,19.88
2018-12-15T04:36:23.081Z,19.85
2018-12-15T04:37:23.080Z,19.79
2018-12-15T04:38:23.150Z,19.82
2018-12-15T04:39:23.049Z,19.86
2018-12-15T04:40:23.063Z,19.88
2018-12-15T04:41:23.049Z,19.86
2018-12-15T04:42:23.051Z,19.86
2018-12-15T04:43:23.069Z,19.94
2018-12-15T04:44:23.003Z,19.89
2018-12-15T04:45:22.996Z,19.91
2018-12-15T04:46:22.992Z,19.88
2018-12-15T04:47:22.945Z,19.89
2018-12-15T04:48:22.963Z,19.91
2018-12-15T04:49:22.931Z,19.88
2018-12-15T04:50:22.909Z,19.91
2018-12-15T04:51:22.943Z,19.92
2018-12-15T04:52:22.898Z,19.89
2018-12-15T04:53:22.879Z,19.85
2018-12-15T04:54:22.877Z,19.85
2018-12-15T04:55:22.852Z,19.96
2018-12-15T04:56:22.862Z,19.96
2018-12-15T04:57:22.835Z,19.88
2018-12-15T04:58:22.840Z,19.92
2018-12-15T04:59:22.851Z,19.94
2018-12-15T05:00:22.800Z,19.96
2018-12-15T05:01:22.787Z,20.02
2018-12-15T05:02:22.791Z,19.92
2018-12-15T05:03:22.951Z,19.86
2018-12-15T05:04:22.766Z,19.92
2018-12-15T05:05:22.741Z,19.86
2018-12-15T05:06:22.730Z,19.89
2018-12-15T05:07:22.731Z,19.85
2018-12-15T05:08:22.802Z,19.84
2018-12-15T05:09:22.704Z,19.88
2018-12-15T05:10:22.724Z,19.86
2018-12-15T05:11:22.686Z,19.88
2018-12-15T05:12:22.664Z,19.92
2018-12-15T05:13:22.654Z,19.85
2018-12-15T05:14:22.658Z,19.96
2018-12-15T05:15:22.659Z,19.88
2018-12-15T05:16:22.647Z,19.92
2018-12-15T05:17:22.604Z,19.86
2018-12-15T05:18:22.599Z,19.86
2018-12-15T05:19:22.605Z,19.85
2018-12-15T05:20:22.575Z,19.86
2018-12-15T05:21:22.570Z,19.85
2018-12-15T05:22:22.561Z,19.85
2018-12-15T05:23:22.579Z,19.88
2018-12-15T05:24:22.547Z,19.86
2018-12-15T05:25:22.557Z,19.86
2018-12-15T05:26:22.505Z,19.86
2018-12-15T05:27:22.496Z,19.81
2018-12-15T05:28:22.483Z,19.85
2018-12-15T05:29:22.488Z,19.86
2018-12-15T05:30:22.510Z,19.86
2018-12-15T05:31:22.474Z,19.84
2018-12-15T05:32:22.473Z,19.86
2018-12-15T05:33:22.462Z,19.86
2018-12-15T05:34:22.599Z,19.79
2018-12-15T05:35:22.449Z,19.77
2018-12-15T05:36:22.438Z,19.86
2018-12-15T05:37:22.444Z,19.86
2018-12-15T05:38:22.408Z,19.86
2018-12-15T05:39:22.380Z,19.88
2018-12-15T05:40:22.358Z,19.88
2018-12-15T05:41:22.403Z,19.85
2018-12-15T05:42:22.345Z,19.88
2018-12-15T05:43:22.320Z,19.86
2018-12-15T05:44:22.314Z,19.86
2018-12-15T05:45:22.305Z,19.89
2018-12-15T05:46:22.342Z,19.86
2018-12-15T05:47:22.389Z,19.89
2018-12-15T05:48:25.305Z,19.88
2018-12-15T05:49:22.277Z,19.89
2018-12-15T05:50:22.243Z,19.91
2018-12-15T05:51:22.223Z,19.88
2018-12-15T05:52:22.212Z,19.85
2018-12-15T05:53:22.224Z,19.91
2018-12-15T05:54:22.194Z,19.86
2018-12-15T05:55:22.197Z,19.91
2018-12-15T05:56:22.191Z,19.85
2018-12-15T05:57:22.156Z,19.86
2018-12-15T05:58:22.159Z,19.81
2018-12-15T05:59:22.135Z,19.77
2018-12-15T06:00:22.159Z,19.77
2018-12-15T06:01:22.113Z,19.82
2018-12-15T06:02:22.098Z,19.88
2018-12-15T06:03:22.083Z,19.89
2018-12-15T06:04:22.077Z,19.85
2018-12-15T06:05:22.092Z,19.88
2018-12-15T06:06:22.064Z,19.85
2018-12-15T06:07:22.067Z,19.89
2018-12-15T06:08:22.059Z,19.79
2018-12-15T06:09:22.015Z,19.76
2018-12-15T06:10:22.018Z,19.81
2018-12-15T06:11:22.007Z,19.84
2018-12-15T06:12:21.985Z,19.84
2018-12-15T06:13:21.975Z,19.82
2018-12-15T06:14:21.966Z,19.85
2018-12-15T06:15:21.981Z,19.84
2018-12-15T06:16:21.953Z,19.84
2018-12-15T06:17:21.931Z,19.74
2018-12-15T06:18:21.925Z,19.73
2018-12-15T06:19:21.905Z,19.84
2018-12-15T06:20:21.909Z,19.84
2018-12-15T06:21:21.904Z,19.81
2018-12-15T06:22:21.913Z,19.77
2018-12-15T06:23:21.919Z,19.74
2018-12-15T06:24:21.868Z,19.79
2018-12-15T06:25:21.875Z,19.74
2018-12-15T06:26:21.858Z,19.79
2018-12-15T06:27:21.826Z,19.81
2018-12-15T06:28:21.878Z,19.81
2018-12-15T06:29:21.863Z,19.79
2018-12-15T06:30:21.802Z,19.88
2018-12-15T06:31:21.814Z,19.85
2018-12-15T06:32:21.908Z,19.88
2018-12-15T06:33:21.773Z,19.85
2018-12-15T06:34:21.751Z,19.79
2018-12-15T06:35:21.730Z,19.86
2018-12-15T06:36:21.738Z,19.88
2018-12-15T06:37:21.723Z,19.86
2018-12-15T06:38:21.817Z,19.89
2018-12-15T06:39:21.727Z,19.88
2018-12-15T06:40:21.699Z,19.86
2018-12-15T06:41:21.756Z,19.89
2018-12-15T06:42:21.659Z,19.85
2018-12-15T06:43:21.688Z,19.89
2018-12-15T06:44:21.627Z,19.91
2018-12-15T06:45:21.659Z,19.95
2018-12-15T06:46:21.617Z,19.86
2018-12-15T06:47:21.590Z,19.86
2018-12-15T06:48:21.589Z,19.85
2018-12-15T06:49:21.569Z,19.84
2018-12-15T06:50:21.593Z,19.86
2018-12-15T06:51:21.591Z,19.81
2018-12-15T06:52:21.544Z,19.85
2018-12-15T06:53:21.522Z,19.89
2018-12-15T06:54:21.510Z,19.86
2018-12-15T06:55:21.496Z,19.89
2018-12-15T06:56:21.498Z,19.85
2018-12-15T06:57:21.525Z,19.91
2018-12-15T06:58:21.497Z,19.77
2018-12-15T06:59:21.457Z,19.88
2018-12-15T07:00:21.440Z,19.88
2018-12-15T07:01:21.438Z,19.76
2018-12-15T07:02:21.426Z,19.82
2018-12-15T07:03:21.408Z,19.82
2018-12-15T07:04:21.422Z,19.79
2018-12-15T07:05:21.409Z,19.81
2018-12-15T07:06:21.414Z,19.82
2018-12-15T07:07:21.377Z,19.79
2018-12-15T07:08:26.174Z,19.77
2018-12-15T07:09:21.350Z,19.79
2018-12-15T07:10:21.332Z,19.85
2018-12-15T07:11:21.406Z,19.89
2018-12-15T07:12:21.310Z,19.79
2018-12-15T07:13:21.311Z,19.88
2018-12-15T07:14:21.284Z,19.85
2018-12-15T07:15:21.280Z,19.89
2018-12-15T07:16:21.307Z,19.85
2018-12-15T07:17:21.284Z,19.88
2018-12-15T07:18:21.245Z,19.85
2018-12-15T07:19:21.231Z,19.92
2018-12-15T07:20:21.227Z,19.85
2018-12-15T07:21:21.248Z,19.88
2018-12-15T07:22:21.231Z,19.85
2018-12-15T07:23:21.195Z,19.94
2018-12-15T07:24:21.184Z,19.85
2018-12-15T07:25:21.161Z,19.89
2018-12-15T07:26:21.179Z,19.88
2018-12-15T07:27:21.207Z,19.89
2018-12-15T07:28:21.144Z,19.91
2018-12-15T07:29:21.155Z,19.86
2018-12-15T07:30:21.116Z,19.94
2018-12-15T07:31:21.124Z,19.88
2018-12-15T07:32:21.081Z,19.88
2018-12-15T07:33:21.079Z,19.92
2018-12-15T07:34:21.062Z,19.96
2018-12-15T07:35:21.071Z,19.85
2018-12-15T07:36:21.053Z,19.86
2018-12-15T07:37:21.053Z,19.88
2018-12-15T07:38:21.109Z,19.89
2018-12-15T07:39:21.011Z,19.89
2018-12-15T07:40:20.987Z,19.86
2018-12-15T07:41:21.013Z,19.91
2018-12-15T07:42:21.027Z,19.88
2018-12-15T07:43:20.974Z,19.86
2018-12-15T07:44:20.981Z,19.84
2018-12-15T07:45:20.950Z,19.76
2018-12-15T07:46:20.959Z,19.81
2018-12-15T07:47:20.943Z,19.82
2018-12-15T07:48:20.901Z,19.79
2018-12-15T07:49:20.900Z,19.82
2018-12-15T07:50:20.888Z,19.88
2018-12-15T07:51:20.896Z,19.86
2018-12-15T07:52:20.981Z,19.86
2018-12-15T07:53:20.878Z,19.89
2018-12-15T07:54:20.829Z,19.89
2018-12-15T07:55:20.882Z,19.88
2018-12-15T07:56:20.863Z,19.86
2018-12-15T07:57:20.835Z,19.73
2018-12-15T07:58:20.816Z,19.77
2018-12-15T07:59:20.782Z,19.79
2018-12-15T08:00:20.798Z,19.76
2018-12-15T08:01:20.756Z,19.85
2018-12-15T08:02:20.889Z,19.85
2018-12-15T08:03:20.793Z,19.82
2018-12-15T08:04:20.763Z,19.86
2018-12-15T08:05:20.716Z,19.86
2018-12-15T08:06:20.730Z,19.91
2018-12-15T08:07:20.721Z,19.91
2018-12-15T08:08:20.716Z,19.88
2018-12-15T08:09:20.733Z,19.86
2018-12-15T08:10:20.660Z,19.95
2018-12-15T08:11:20.638Z,19.85
2018-12-15T08:12:20.669Z,19.88
2018-12-15T08:13:20.619Z,19.86
2018-12-15T08:14:20.642Z,19.88
2018-12-15T08:15:20.642Z,19.85
2018-12-15T08:16:20.690Z,19.89
2018-12-15T08:17:20.587Z,19.91
2018-12-15T08:18:20.610Z,20.02
2018-12-15T08:19:20.553Z,19.86
2018-12-15T08:20:20.639Z,19.94
2018-12-15T08:21:20.571Z,19.94
2018-12-15T08:22:26.196Z,19.91
2018-12-15T08:23:21.536Z,19.94
2018-12-15T08:24:20.503Z,19.89
2018-12-15T08:25:20.691Z,19.89
2018-12-15T08:26:20.509Z,19.91
2018-12-15T08:27:20.510Z,19.92
2018-12-15T08:28:20.516Z,19.89
2018-12-15T08:29:20.450Z,19.91
2018-12-15T08:30:20.462Z,19.88
2018-12-15T08:31:20.433Z,19.89
2018-12-15T08:32:20.567Z,19.88
2018-12-15T08:33:20.413Z,19.91
2018-12-15T08:34:20.485Z,19.89
2018-12-15T08:35:20.393Z,19.86
2018-12-15T08:36:20.372Z,19.85
2018-12-15T08:37:20.434Z,19.88
2018-12-15T08:38:20.503Z,19.84
2018-12-15T08:39:20.325Z,19.77
2018-12-15T08:40:20.333Z,19.88
2018-12-15T08:41:20.359Z,19.85
2018-12-15T08:42:20.322Z,19.89
2018-12-15T08:43:20.307Z,19.88
2018-12-15T08:44:20.320Z,19.85
2018-12-15T08:45:20.293Z,19.89
2018-12-15T08:46:20.276Z,19.84
2018-12-15T08:47:20.235Z,19.84
2018-12-15T08:48:20.251Z,19.84
2018-12-15T08:49:20.237Z,19.84
2018-12-15T08:50:20.266Z,19.86
2018-12-15T08:51:20.229Z,19.82
2018-12-15T08:52:20.203Z,19.82
2018-12-15T08:53:20.181Z,19.79
2018-12-15T08:54:20.180Z,19.85
2018-12-15T08:55:20.141Z,19.76
2018-12-15T08:56:20.138Z,19.77
2018-12-15T08:57:20.132Z,19.86
2018-12-15T08:58:20.149Z,19.85
2018-12-15T08:59:20.124Z,19.86
2018-12-15T09:00:20.111Z,19.79
2018-12-15T09:01:20.119Z,19.85
2018-12-15T09:02:20.077Z,19.85
2018-12-15T09:03:20.071Z,19.86
2018-12-15T09:04:20.045Z,19.82
2018-12-15T09:05:20.039Z,19.91
2018-12-15T09:06:20.016Z,19.91
2018-12-15T09:07:20.104Z,19.96
2018-12-15T09:08:20.155Z,19.88
2018-12-15T09:09:20.028Z,19.85
2018-12-15T09:10:20.016Z,19.89
2018-12-15T09:11:19.962Z,19.91
2018-12-15T09:12:19.978Z,19.86
2018-12-15T09:13:20.004Z,19.89
2018-12-15T09:14:19.939Z,19.94
2018-12-15T09:15:19.933Z,19.88
2018-12-15T09:16:26.204Z,19.96
2018-12-15T09:17:20.895Z,19.88
2018-12-15T09:18:19.923Z,19.88
2018-12-15T09:19:19.875Z,19.96
2018-12-15T09:20:19.881Z,19.94
2018-12-15T09:21:19.965Z,19.86
2018-12-15T09:22:19.858Z,19.91
2018-12-15T09:23:19.865Z,19.89
2018-12-15T09:24:19.819Z,19.92
2018-12-15T09:25:19.807Z,19.88
2018-12-15T09:26:19.804Z,19.95
2018-12-15T09:27:19.790Z,19.88
2018-12-15T09:28:19.794Z,19.86
2018-12-15T09:29:19.757Z,19.85
2018-12-15T09:30:20.536Z,19.77
2018-12-15T09:31:19.756Z,19.74
2018-12-15T09:32:19.720Z,19.81
2018-12-15T09:33:19.719Z,19.79
2018-12-15T09:34:19.718Z,19.76
2018-12-15T09:35:19.688Z,19.81
2018-12-15T09:36:19.767Z,19.82
2018-12-15T09:37:19.669Z,19.86
2018-12-15T09:38:19.747Z,19.85
2018-12-15T09:39:19.651Z,19.88
2018-12-15T09:40:19.696Z,19.89
2018-12-15T09:41:19.625Z,19.89
2018-12-15T09:42:19.608Z,19.92
2018-12-15T09:43:19.628Z,19.86
2018-12-15T09:44:19.599Z,19.86
2018-12-15T09:45:19.606Z,19.88
2018-12-15T09:46:19.566Z,19.85
2018-12-15T09:47:19.575Z,19.74
2018-12-15T09:48:19.541Z,19.86
2018-12-15T09:49:19.559Z,19.89
2018-12-15T09:50:19.532Z,19.91
2018-12-15T09:51:19.505Z,19.91
2018-12-15T09:52:19.523Z,19.82
2018-12-15T09:53:19.535Z,19.89
2018-12-15T09:54:19.480Z,19.91
2018-12-15T09:55:19.469Z,19.89
2018-12-15T09:56:19.473Z,19.88
2018-12-15T09:57:19.512Z,20.00
2018-12-15T09:58:19.425Z,19.86
2018-12-15T09:59:19.438Z,19.77
2018-12-15T10:00:19.406Z,19.94
2018-12-15T10:01:19.397Z,19.89
2018-12-15T10:02:19.395Z,19.92
2018-12-15T10:03:19.382Z,19.89
2018-12-15T10:04:19.385Z,19.92
2018-12-15T10:05:19.387Z,19.95
2018-12-15T10:06:19.354Z,19.91
2018-12-15T10:07:19.355Z,19.92
2018-12-15T10:08:19.336Z,19.85
2018-12-15T10:09:19.332Z,19.91
2018-12-15T10:10:19.391Z,19.91
2018-12-15T10:11:19.322Z,19.92
2018-12-15T10:12:19.284Z,19.94
2018-12-15T10:13:19.301Z,19.88
2018-12-15T10:14:19.289Z,19.92
2018-12-15T10:15:19.237Z,19.86
2018-12-15T10:16:19.235Z,19.91
2018-12-15T10:17:19.221Z,19.89
2018-12-15T10:18:19.233Z,19.94
2018-12-15T10:19:24.285Z,19.86
2018-12-15T10:20:20.183Z,19.94
2018-12-15T10:21:19.181Z,19.88
2018-12-15T10:22:19.154Z,19.89
2018-12-15T10:23:19.163Z,19.89
2018-12-15T10:24:19.150Z,19.91
2018-12-15T10:25:19.275Z,19.89
2018-12-15T10:26:19.123Z,19.95
2018-12-15T10:27:19.103Z,19.86
2018-12-15T10:28:19.095Z,19.92
2018-12-15T10:29:19.099Z,19.85
2018-12-15T10:30:19.087Z,19.91
2018-12-15T10:31:19.067Z,19.94
2018-12-15T10:32:19.043Z,19.89
2018-12-15T10:33:19.030Z,19.88
2018-12-15T10:34:19.110Z,19.89
2018-12-15T10:35:19.012Z,19.88
2018-12-15T10:36:19.013Z,19.94
2018-12-15T10:37:18.985Z,19.86
2018-12-15T10:38:23.725Z,19.86
2018-12-15T10:39:18.971Z,19.86
2018-12-15T10:40:18.963Z,19.91
2018-12-15T10:41:18.942Z,19.88
2018-12-15T10:42:18.947Z,19.82
2018-12-15T10:43:18.931Z,19.91
2018-12-15T10:44:18.905Z,19.88
2018-12-15T10:45:18.905Z,20.00
2018-12-15T10:46:18.884Z,19.92
2018-12-15T10:47:18.875Z,19.88
2018-12-15T10:48:18.889Z,19.92
2018-12-15T10:49:18.857Z,19.95
2018-12-15T10:50:18.855Z,19.91
2018-12-15T10:51:18.836Z,19.89
2018-12-15T10:52:18.830Z,19.86
2018-12-15T10:53:18.812Z,19.86
2018-12-15T10:54:18.803Z,19.91
2018-12-15T10:55:18.852Z,19.91
2018-12-15T10:56:18.774Z,19.94
2018-12-15T10:57:18.768Z,19.88
2018-12-15T10:58:18.783Z,19.81
2018-12-15T10:59:18.746Z,19.89
2018-12-15T11:00:18.759Z,19.77
2018-12-15T11:01:18.716Z,19.88
2018-12-15T11:02:18.715Z,19.86
2018-12-15T11:03:18.703Z,19.89
2018-12-15T11:04:18.722Z,19.94
2018-12-15T11:05:18.694Z,19.86
2018-12-15T11:06:18.677Z,19.85
2018-12-15T11:07:18.649Z,19.88
2018-12-15T11:08:18.756Z,19.85
2018-12-15T11:09:18.663Z,19.89
2018-12-15T11:10:18.623Z,19.88
2018-12-15T11:11:18.618Z,19.89
2018-12-15T11:12:18.666Z,19.89
2018-12-15T11:13:18.650Z,19.89
2018-12-15T11:14:18.569Z,19.89
2018-12-15T11:15:18.588Z,19.89
2018-12-15T11:16:18.603Z,19.91
2018-12-15T11:17:18.555Z,19.89
2018-12-15T11:18:18.531Z,19.86
2018-12-15T11:19:18.537Z,19.86
2018-12-15T11:20:18.513Z,19.91
2018-12-15T11:21:18.498Z,19.85
2018-12-15T11:22:18.537Z,19.77
2018-12-15T11:23:18.500Z,19.88
2018-12-15T11:24:18.521Z,19.82
2018-12-15T11:25:18.465Z,19.89
2018-12-15T11:26:18.496Z,19.89
2018-12-15T11:27:18.424Z,19.88
2018-12-15T11:28:18.451Z,19.88
2018-12-15T11:29:18.408Z,19.88
2018-12-15T11:30:18.399Z,19.86
2018-12-15T11:31:18.397Z,19.86
2018-12-15T11:32:18.373Z,19.82
2018-12-15T11:33:18.359Z,19.91
2018-12-15T11:34:18.409Z,19.91
2018-12-15T11:35:18.369Z,19.92
2018-12-15T11:36:18.623Z,19.94
2018-12-15T11:37:18.334Z,19.88
2018-12-15T11:38:18.344Z,19.92
2018-12-15T11:39:18.291Z,19.94
2018-12-15T11:40:18.295Z,20.02
2018-12-15T11:41:18.300Z,19.91
2018-12-15T11:42:18.256Z,19.96
2018-12-15T11:43:18.252Z,19.95
2018-12-15T11:44:18.291Z,19.94
2018-12-15T11:45:18.219Z,20.03
2018-12-15T11:46:18.217Z,20.04
2018-12-15T11:47:18.215Z,20.02
2018-12-15T11:48:18.187Z,19.92
2018-12-15T11:49:18.178Z,19.92
2018-12-15T11:50:18.172Z,19.95
2018-12-15T11:51:18.185Z,19.94
2018-12-15T11:52:18.152Z,20.02
2018-12-15T11:53:18.135Z,20.00
2018-12-15T11:54:18.138Z,19.92
2018-12-15T11:55:18.122Z,20.03
2018-12-15T11:56:18.104Z,19.96
2018-12-15T11:57:18.092Z,19.95
2018-12-15T11:58:18.069Z,19.92
2018-12-15T11:59:18.131Z,19.95
2018-12-15T12:00:18.049Z,19.94
2018-12-15T12:01:18.094Z,19.88
2018-12-15T12:02:18.042Z,19.95
2018-12-15T12:03:18.030Z,19.92
2018-12-15T12:04:18.015Z,19.92
2018-12-15T12:05:17.996Z,19.99
2018-12-15T12:06:18.005Z,19.95
2018-12-15T12:07:17.972Z,19.94
2018-12-15T12:08:17.973Z,20.06
2018-12-15T12:09:17.963Z,20.00
2018-12-15T12:10:17.961Z,19.91
2018-12-15T12:11:18.005Z,19.92
2018-12-15T12:12:17.937Z,19.89
2018-12-15T12:13:17.922Z,19.96
2018-12-15T12:14:17.897Z,19.95
2018-12-15T12:15:17.928Z,19.89
2018-12-15T12:16:17.901Z,19.88
2018-12-15T12:17:17.859Z,19.92
2018-12-15T12:18:17.853Z,19.94
2018-12-15T12:19:17.883Z,19.92
2018-12-15T12:20:17.834Z,19.88
2018-12-15T12:21:17.850Z,19.88
2018-12-15T12:22:17.822Z,19.91
2018-12-15T12:23:17.857Z,19.95
2018-12-15T12:24:17.780Z,19.92
2018-12-15T12:25:17.783Z,20.02
2018-12-15T12:26:17.777Z,20.00
2018-12-15T12:27:17.776Z,19.99
2018-12-15T12:28:17.737Z,20.02
2018-12-15T12:29:17.774Z,20.02
2018-12-15T12:30:17.803Z,20.06
2018-12-15T12:31:17.714Z,20.03
2018-12-15T12:32:17.712Z,20.00
2018-12-15T12:33:17.682Z,20.04
2018-12-15T12:34:17.671Z,20.04
2018-12-15T12:35:17.662Z,20.04
2018-12-15T12:36:17.672Z,20.02
2018-12-15T12:37:17.651Z,20.00
2018-12-15T12:38:17.805Z,20.00
2018-12-15T12:39:17.655Z,20.02
2018-12-15T12:40:17.667Z,19.99
2018-12-15T12:41:17.647Z,20.00
2018-12-15T12:42:17.590Z,19.99
2018-12-15T12:43:17.584Z,20.06
2018-12-15T12:44:17.559Z,20.06
2018-12-15T12:45:17.557Z,19.91
2018-12-15T12:46:17.602Z,19.89
2018-12-15T12:47:17.610Z,19.91
2018-12-15T12:48:17.531Z,19.89
2018-12-15T12:49:17.519Z,19.92
2018-12-15T12:50:17.488Z,19.92
2018-12-15T12:51:17.496Z,19.88
2018-12-15T12:52:17.514Z,19.92